sensor_id;sensor_type;location;lat;lon;timestamp;pressure;altitude;pressure_sealevel;temperature;humidity
36138;BME280;22194;50.046;21.954;2022-09-03T00:02:17;99254.70;;;15.60;46.27
36138;BME280;22194;50.046;21.954;2022-09-03T00:10:55;99247.71;;;15.52;46.61
36138;BME280;22194;50.046;21.954;2022-09-03T00:13:59;99247.75;;;15.48;46.63
36138;BME280;22194;50.046;21.954;2022-09-03T00:16:49;99246.64;;;15.44;46.93
36138;BME280;22194;50.046;21.954;2022-09-03T00:19:27;99242.50;;;15.43;46.95
36138;BME280;22194;50.046;21.954;2022-09-03T00:22:04;99239.52;;;15.40;46.86
36138;BME280;22194;50.046;21.954;2022-09-03T00:24:40;99239.17;;;15.36;46.86
36138;BME280;22194;50.046;21.954;2022-09-03T00:27:14;99236.88;;;15.29;46.92
36138;BME280;22194;50.046;21.954;2022-09-03T00:30:03;99231.55;;;15.21;46.95
36138;BME280;22194;50.046;21.954;2022-09-03T00:32:49;99239.02;;;15.11;47.30
36138;BME280;22194;50.046;21.954;2022-09-03T00:38:21;99240.85;;;15.03;47.65
36138;BME280;22194;50.046;21.954;2022-09-03T00:46:18;99240.98;;;14.99;47.91
36138;BME280;22194;50.046;21.954;2022-09-03T00:49:31;99243.31;;;14.99;48.03
36138;BME280;22194;50.046;21.954;2022-09-03T01:00:17;99241.83;;;14.96;48.43
36138;BME280;22194;50.046;21.954;2022-09-03T01:03:05;99243.91;;;14.94;48.51
36138;BME280;22194;50.046;21.954;2022-09-03T01:05:44;99242.99;;;14.93;48.70
36138;BME280;22194;50.046;21.954;2022-09-03T01:14:28;99249.40;;;14.86;48.98
36138;BME280;22194;50.046;21.954;2022-09-03T01:17:07;99249.03;;;14.83;49.02
36138;BME280;22194;50.046;21.954;2022-09-03T01:30:41;99245.81;;;14.70;49.55
36138;BME280;22194;50.046;21.954;2022-09-03T01:34:12;99246.61;;;14.69;49.60
36138;BME280;22194;50.046;21.954;2022-09-03T01:36:51;99245.13;;;14.66;49.64
36138;BME280;22194;50.046;21.954;2022-09-03T01:54:02;99239.27;;;14.52;50.07
36138;BME280;22194;50.046;21.954;2022-09-03T02:00:16;99238.92;;;14.50;50.59
36138;BME280;22194;50.046;21.954;2022-09-03T02:02:49;99240.81;;;14.51;50.57
36138;BME280;22194;50.046;21.954;2022-09-03T02:05:27;99237.56;;;14.49;50.65
36138;BME280;22194;50.046;21.954;2022-09-03T02:07:57;99235.98;;;14.49;50.77
36138;BME280;22194;50.046;21.954;2022-09-03T02:10:44;99237.14;;;14.50;50.84
36138;BME280;22194;50.046;21.954;2022-09-03T02:15:52;99234.69;;;14.48;50.91
36138;BME280;22194;50.046;21.954;2022-09-03T02:18:26;99235.66;;;14.47;51.00
36138;BME280;22194;50.046;21.954;2022-09-03T02:20:58;99235.13;;;14.45;50.91
36138;BME280;22194;50.046;21.954;2022-09-03T02:23:28;99237.63;;;14.43;51.06
36138;BME280;22194;50.046;21.954;2022-09-03T02:26:00;99241.91;;;14.38;51.07
36138;BME280;22194;50.046;21.954;2022-09-03T02:28:30;99240.17;;;14.36;51.32
36138;BME280;22194;50.046;21.954;2022-09-03T02:30:59;99242.98;;;14.36;51.40
36138;BME280;22194;50.046;21.954;2022-09-03T02:33:35;99239.53;;;14.35;51.50
36138;BME280;22194;50.046;21.954;2022-09-03T02:36:07;99239.25;;;14.36;51.65
36138;BME280;22194;50.046;21.954;2022-09-03T02:38:36;99240.73;;;14.38;51.75
36138;BME280;22194;50.046;21.954;2022-09-03T02:41:05;99239.68;;;14.39;51.74
36138;BME280;22194;50.046;21.954;2022-09-03T02:43:41;99238.39;;;14.38;51.75
36138;BME280;22194;50.046;21.954;2022-09-03T02:46:23;99243.10;;;14.37;51.96
36138;BME280;22194;50.046;21.954;2022-09-03T02:48:54;99244.98;;;14.36;52.06
36138;BME280;22194;50.046;21.954;2022-09-03T02:51:23;99246.39;;;14.36;52.08
36138;BME280;22194;50.046;21.954;2022-09-03T02:53:54;99246.02;;;14.36;51.93
36138;BME280;22194;50.046;21.954;2022-09-03T02:56:22;99244.04;;;14.32;52.01
36138;BME280;22194;50.046;21.954;2022-09-03T02:58:55;99243.25;;;14.29;52.16
36138;BME280;22194;50.046;21.954;2022-09-03T03:01:24;99239.08;;;14.27;52.17
36138;BME280;22194;50.046;21.954;2022-09-03T03:03:53;99238.86;;;14.26;52.41
36138;BME280;22194;50.046;21.954;2022-09-03T03:06:22;99235.85;;;14.26;52.16
36138;BME280;22194;50.046;21.954;2022-09-03T03:08:51;99233.38;;;14.19;52.32
36138;BME280;22194;50.046;21.954;2022-09-03T03:11:19;99241.26;;;14.14;52.55
36138;BME280;22194;50.046;21.954;2022-09-03T03:13:48;99244.59;;;14.13;52.64
36138;BME280;22194;50.046;21.954;2022-09-03T03:16:17;99243.58;;;14.12;52.74
36138;BME280;22194;50.046;21.954;2022-09-03T03:18:46;99243.59;;;14.12;52.67
36138;BME280;22194;50.046;21.954;2022-09-03T03:21:16;99241.30;;;14.10;52.65
36138;BME280;22194;50.046;21.954;2022-09-03T03:23:45;99240.86;;;14.07;52.93
36138;BME280;22194;50.046;21.954;2022-09-03T03:26:16;99240.71;;;14.06;53.16
36138;BME280;22194;50.046;21.954;2022-09-03T03:28:50;99239.28;;;14.06;53.15
36138;BME280;22194;50.046;21.954;2022-09-03T03:31:25;99242.47;;;14.06;53.33
36138;BME280;22194;50.046;21.954;2022-09-03T03:33:59;99246.11;;;14.07;53.27
36138;BME280;22194;50.046;21.954;2022-09-03T03:36:28;99246.47;;;14.07;53.34
36138;BME280;22194;50.046;21.954;2022-09-03T03:38:59;99243.58;;;14.06;53.48
36138;BME280;22194;50.046;21.954;2022-09-03T03:41:33;99244.52;;;14.05;53.49
36138;BME280;22194;50.046;21.954;2022-09-03T03:44:04;99240.35;;;14.06;53.48
36138;BME280;22194;50.046;21.954;2022-09-03T03:46:35;99240.33;;;14.07;53.64
36138;BME280;22194;50.046;21.954;2022-09-03T03:49:06;99236.61;;;14.08;53.77
36138;BME280;22194;50.046;21.954;2022-09-03T03:51:36;99235.49;;;14.09;53.80
36138;BME280;22194;50.046;21.954;2022-09-03T03:54:06;99234.56;;;14.07;53.76
36138;BME280;22194;50.046;21.954;2022-09-03T03:56:37;99236.10;;;14.08;54.00
36138;BME280;22194;50.046;21.954;2022-09-03T03:59:06;99234.36;;;14.09;53.97
36138;BME280;22194;50.046;21.954;2022-09-03T04:01:34;99231.45;;;14.10;54.05
36138;BME280;22194;50.046;21.954;2022-09-03T04:04:02;99231.89;;;14.11;54.11
36138;BME280;22194;50.046;21.954;2022-09-03T04:06:31;99231.10;;;14.12;54.20
36138;BME280;22194;50.046;21.954;2022-09-03T04:08:58;99229.00;;;14.14;54.23
36138;BME280;22194;50.046;21.954;2022-09-03T04:11:27;99230.04;;;14.14;54.18
36138;BME280;22194;50.046;21.954;2022-09-03T04:13:55;99230.90;;;14.12;54.20
36138;BME280;22194;50.046;21.954;2022-09-03T04:16:27;99232.05;;;14.09;54.27
36138;BME280;22194;50.046;21.954;2022-09-03T04:18:56;99234.16;;;14.08;54.24
36138;BME280;22194;50.046;21.954;2022-09-03T04:21:27;99237.39;;;14.06;54.32
36138;BME280;22194;50.046;21.954;2022-09-03T04:23:57;99233.80;;;14.03;54.58
36138;BME280;22194;50.046;21.954;2022-09-03T04:26:28;99234.41;;;14.05;54.42
36138;BME280;22194;50.046;21.954;2022-09-03T04:29:03;99234.40;;;14.03;54.76
36138;BME280;22194;50.046;21.954;2022-09-03T04:31:33;99232.23;;;14.03;54.72
36138;BME280;22194;50.046;21.954;2022-09-03T04:34:02;99235.61;;;14.03;54.67
36138;BME280;22194;50.046;21.954;2022-09-03T04:36:33;99234.81;;;14.02;54.84
36138;BME280;22194;50.046;21.954;2022-09-03T04:39:02;99236.98;;;14.04;54.78
36138;BME280;22194;50.046;21.954;2022-09-03T04:41:30;99239.23;;;14.05;54.77
36138;BME280;22194;50.046;21.954;2022-09-03T04:43:59;99241.25;;;14.06;55.01
36138;BME280;22194;50.046;21.954;2022-09-03T04:46:29;99241.11;;;14.10;55.11
36138;BME280;22194;50.046;21.954;2022-09-03T04:49:01;99243.15;;;14.13;55.12
36138;BME280;22194;50.046;21.954;2022-09-03T04:51:32;99243.84;;;14.18;55.33
36138;BME280;22194;50.046;21.954;2022-09-03T04:54:01;99245.48;;;14.24;55.34
36138;BME280;22194;50.046;21.954;2022-09-03T04:56:32;99240.69;;;14.27;55.38
36138;BME280;22194;50.046;21.954;2022-09-03T04:59:03;99238.23;;;14.32;55.37
36138;BME280;22194;50.046;21.954;2022-09-03T05:01:35;99234.25;;;14.34;55.48
36138;BME280;22194;50.046;21.954;2022-09-03T05:04:06;99236.33;;;14.37;55.55
36138;BME280;22194;50.046;21.954;2022-09-03T05:06:35;99237.55;;;14.41;55.53
36138;BME280;22194;50.046;21.954;2022-09-03T05:09:04;99240.05;;;14.43;55.43
36138;BME280;22194;50.046;21.954;2022-09-03T05:11:33;99243.23;;;14.43;55.55
36138;BME280;22194;50.046;21.954;2022-09-03T05:14:02;99241.56;;;14.45;55.63
36138;BME280;22194;50.046;21.954;2022-09-03T05:16:33;99240.82;;;14.45;55.70
36138;BME280;22194;50.046;21.954;2022-09-03T05:19:01;99242.77;;;14.50;55.86
36138;BME280;22194;50.046;21.954;2022-09-03T05:21:31;99249.14;;;14.54;55.87
36138;BME280;22194;50.046;21.954;2022-09-03T05:24:00;99247.48;;;14.54;55.80
36138;BME280;22194;50.046;21.954;2022-09-03T05:26:31;99246.27;;;14.54;55.93
36138;BME280;22194;50.046;21.954;2022-09-03T05:29:02;99244.83;;;14.58;56.04
36138;BME280;22194;50.046;21.954;2022-09-03T05:31:36;99246.61;;;14.63;56.05
36138;BME280;22194;50.046;21.954;2022-09-03T05:34:07;99243.99;;;14.66;56.02
36138;BME280;22194;50.046;21.954;2022-09-03T05:36:43;99243.69;;;14.68;56.18
36138;BME280;22194;50.046;21.954;2022-09-03T05:39:12;99245.73;;;14.71;56.12
36138;BME280;22194;50.046;21.954;2022-09-03T05:41:40;99244.41;;;14.76;56.18
36138;BME280;22194;50.046;21.954;2022-09-03T05:44:08;99247.38;;;14.79;56.15
36138;BME280;22194;50.046;21.954;2022-09-03T05:46:36;99252.25;;;14.83;56.22
36138;BME280;22194;50.046;21.954;2022-09-03T05:49:06;99251.96;;;14.86;56.25
36138;BME280;22194;50.046;21.954;2022-09-03T05:51:35;99253.65;;;14.91;56.32
36138;BME280;22194;50.046;21.954;2022-09-03T05:54:03;99249.42;;;14.97;56.27
36138;BME280;22194;50.046;21.954;2022-09-03T05:56:32;99246.73;;;14.99;56.30
36138;BME280;22194;50.046;21.954;2022-09-03T05:59:04;99253.59;;;15.04;56.33
36138;BME280;22194;50.046;21.954;2022-09-03T06:01:37;99247.98;;;15.09;56.42
36138;BME280;22194;50.046;21.954;2022-09-03T06:04:12;99254.47;;;15.14;56.42
36138;BME280;22194;50.046;21.954;2022-09-03T06:06:43;99256.46;;;15.20;56.50
36138;BME280;22194;50.046;21.954;2022-09-03T06:09:14;99260.34;;;15.25;56.39
36138;BME280;22194;50.046;21.954;2022-09-03T06:11:45;99259.20;;;15.26;56.48
36138;BME280;22194;50.046;21.954;2022-09-03T06:14:14;99257.16;;;15.28;56.56
36138;BME280;22194;50.046;21.954;2022-09-03T06:16:45;99261.41;;;15.31;56.54
36138;BME280;22194;50.046;21.954;2022-09-03T06:19:17;99260.71;;;15.30;56.56
36138;BME280;22194;50.046;21.954;2022-09-03T06:21:47;99259.31;;;15.32;56.56
36138;BME280;22194;50.046;21.954;2022-09-03T06:24:18;99258.10;;;15.30;56.56
36138;BME280;22194;50.046;21.954;2022-09-03T06:26:47;99264.20;;;15.29;56.60
36138;BME280;22194;50.046;21.954;2022-09-03T06:29:17;99269.48;;;15.28;56.64
36138;BME280;22194;50.046;21.954;2022-09-03T06:31:47;99270.84;;;15.29;56.63
36138;BME280;22194;50.046;21.954;2022-09-03T06:34:15;99269.09;;;15.29;56.71
36138;BME280;22194;50.046;21.954;2022-09-03T06:36:45;99268.66;;;15.30;56.77
36138;BME280;22194;50.046;21.954;2022-09-03T06:39:14;99267.77;;;15.31;56.74
36138;BME280;22194;50.046;21.954;2022-09-03T06:41:43;99267.73;;;15.34;56.80
36138;BME280;22194;50.046;21.954;2022-09-03T06:44:11;99270.69;;;15.37;56.80
36138;BME280;22194;50.046;21.954;2022-09-03T06:46:40;99279.41;;;15.39;56.76
36138;BME280;22194;50.046;21.954;2022-09-03T06:49:11;99279.71;;;15.42;56.86
36138;BME280;22194;50.046;21.954;2022-09-03T06:51:40;99280.77;;;15.46;56.81
36138;BME280;22194;50.046;21.954;2022-09-03T06:54:11;99283.67;;;15.52;56.97
36138;BME280;22194;50.046;21.954;2022-09-03T06:56:40;99277.38;;;15.56;57.01
36138;BME280;22194;50.046;21.954;2022-09-03T06:59:11;99275.38;;;15.58;56.84
36138;BME280;22194;50.046;21.954;2022-09-03T07:01:41;99279.20;;;15.62;57.03
36138;BME280;22194;50.046;21.954;2022-09-03T07:04:14;99282.86;;;15.65;57.12
36138;BME280;22194;50.046;21.954;2022-09-03T07:06:47;99293.06;;;15.72;57.09
36138;BME280;22194;50.046;21.954;2022-09-03T07:09:15;99293.23;;;15.77;57.01
36138;BME280;22194;50.046;21.954;2022-09-03T07:11:46;99296.11;;;15.83;56.86
36138;BME280;22194;50.046;21.954;2022-09-03T07:14:17;99297.71;;;15.85;57.03
36138;BME280;22194;50.046;21.954;2022-09-03T07:16:48;99304.64;;;15.91;56.97
36138;BME280;22194;50.046;21.954;2022-09-03T07:19:17;99306.61;;;15.95;57.03
36138;BME280;22194;50.046;21.954;2022-09-03T07:21:45;99306.11;;;15.99;57.07
36138;BME280;22194;50.046;21.954;2022-09-03T07:24:19;99302.92;;;16.02;56.94
36138;BME280;22194;50.046;21.954;2022-09-03T07:26:49;99302.14;;;16.03;57.15
36138;BME280;22194;50.046;21.954;2022-09-03T07:29:18;99303.23;;;16.07;57.20
36138;BME280;22194;50.046;21.954;2022-09-03T07:31:49;99302.04;;;16.14;57.17
36138;BME280;22194;50.046;21.954;2022-09-03T07:34:21;99295.73;;;16.20;57.20
36138;BME280;22194;50.046;21.954;2022-09-03T07:36:54;99297.18;;;16.26;57.08
36138;BME280;22194;50.046;21.954;2022-09-03T07:39:22;99294.34;;;16.30;57.08
36138;BME280;22194;50.046;21.954;2022-09-03T07:41:51;99296.70;;;16.33;57.21
36138;BME280;22194;50.046;21.954;2022-09-03T07:44:20;99300.41;;;16.38;57.20
36138;BME280;22194;50.046;21.954;2022-09-03T07:46:48;99301.52;;;16.41;57.06
36138;BME280;22194;50.046;21.954;2022-09-03T07:49:20;99302.81;;;16.43;57.11
36138;BME280;22194;50.046;21.954;2022-09-03T07:51:49;99309.39;;;16.47;57.26
36138;BME280;22194;50.046;21.954;2022-09-03T07:54:21;99311.55;;;16.53;57.08
36138;BME280;22194;50.046;21.954;2022-09-03T07:56:51;99312.84;;;16.56;57.14
36138;BME280;22194;50.046;21.954;2022-09-03T07:59:20;99311.79;;;16.58;57.17
36138;BME280;22194;50.046;21.954;2022-09-03T08:01:50;99319.76;;;16.65;57.04
36138;BME280;22194;50.046;21.954;2022-09-03T08:04:19;99321.47;;;16.69;57.11
36138;BME280;22194;50.046;21.954;2022-09-03T08:06:48;99330.83;;;16.72;57.02
36138;BME280;22194;50.046;21.954;2022-09-03T08:09:16;99328.85;;;16.74;57.06
36138;BME280;22194;50.046;21.954;2022-09-03T08:11:44;99326.30;;;16.77;57.13
36138;BME280;22194;50.046;21.954;2022-09-03T08:14:13;99329.18;;;16.80;57.28
36138;BME280;22194;50.046;21.954;2022-09-03T08:16:44;99328.73;;;16.84;56.96
36138;BME280;22194;50.046;21.954;2022-09-03T08:19:16;99329.98;;;16.86;56.92
36138;BME280;22194;50.046;21.954;2022-09-03T08:21:45;99325.15;;;16.88;56.95
36138;BME280;22194;50.046;21.954;2022-09-03T08:24:15;99325.67;;;16.89;56.94
36138;BME280;22194;50.046;21.954;2022-09-03T08:26:44;99322.03;;;16.90;56.97
36138;BME280;22194;50.046;21.954;2022-09-03T08:29:20;99319.83;;;16.90;57.04
36138;BME280;22194;50.046;21.954;2022-09-03T08:31:49;99318.02;;;16.89;56.92
36138;BME280;22194;50.046;21.954;2022-09-03T08:34:19;99323.09;;;16.88;56.85
36138;BME280;22194;50.046;21.954;2022-09-03T08:36:47;99327.48;;;16.91;56.85
36138;BME280;22194;50.046;21.954;2022-09-03T08:39:16;99324.22;;;16.91;56.90
36138;BME280;22194;50.046;21.954;2022-09-03T08:42:10;99326.56;;;16.93;56.75
36138;BME280;22194;50.046;21.954;2022-09-03T08:47:36;99316.59;;;17.04;56.80
36138;BME280;22194;50.046;21.954;2022-09-03T08:50:20;99311.43;;;17.19;56.97
36138;BME280;22194;50.046;21.954;2022-09-03T08:52:54;99304.14;;;17.37;57.05
36138;BME280;22194;50.046;21.954;2022-09-03T08:58:20;99299.23;;;17.56;56.93
36138;BME280;22194;50.046;21.954;2022-09-03T09:01:15;99298.84;;;17.69;56.95
36138;BME280;22194;50.046;21.954;2022-09-03T09:04:15;99304.25;;;17.80;56.85
36138;BME280;22194;50.046;21.954;2022-09-03T09:15:39;99309.77;;;17.97;56.59
36138;BME280;22194;50.046;21.954;2022-09-03T09:18:27;99313.67;;;17.97;56.62
36138;BME280;22194;50.046;21.954;2022-09-03T09:23:49;99319.20;;;17.98;56.61
36138;BME280;22194;50.046;21.954;2022-09-03T09:26:20;99321.63;;;18.00;56.62
36138;BME280;22194;50.046;21.954;2022-09-03T09:29:03;99324.16;;;18.08;56.57
36138;BME280;22194;50.046;21.954;2022-09-03T09:31:38;99318.55;;;18.15;56.54
36138;BME280;22194;50.046;21.954;2022-09-03T09:34:08;99324.52;;;18.24;56.21
36138;BME280;22194;50.046;21.954;2022-09-03T09:36:50;99319.51;;;18.43;56.21
36138;BME280;22194;50.046;21.954;2022-09-03T09:39:21;99316.61;;;18.61;56.12
36138;BME280;22194;50.046;21.954;2022-09-03T09:42:05;99323.52;;;18.75;56.26
36138;BME280;22194;50.046;21.954;2022-09-03T09:44:39;99326.54;;;18.86;56.37
36138;BME280;22194;50.046;21.954;2022-09-03T09:47:30;99330.05;;;18.92;56.10
36138;BME280;22194;50.046;21.954;2022-09-03T09:50:13;99323.16;;;18.96;56.04
36138;BME280;22194;50.046;21.954;2022-09-03T09:53:07;99321.84;;;19.12;56.16
36138;BME280;22194;50.046;21.954;2022-09-03T09:55:49;99324.04;;;19.24;56.14
36138;BME280;22194;50.046;21.954;2022-09-03T09:58:20;99329.10;;;19.30;56.10
36138;BME280;22194;50.046;21.954;2022-09-03T10:03:26;99332.75;;;19.32;55.81
36138;BME280;22194;50.046;21.954;2022-09-03T10:06:05;99330.23;;;19.29;55.75
36138;BME280;22194;50.046;21.954;2022-09-03T10:09:14;99331.83;;;19.24;55.64
36138;BME280;22194;50.046;21.954;2022-09-03T10:11:48;99329.38;;;19.18;55.67
36138;BME280;22194;50.046;21.954;2022-09-03T10:14:22;99330.59;;;19.16;55.58
36138;BME280;22194;50.046;21.954;2022-09-03T10:17:01;99329.51;;;19.18;55.42
36138;BME280;22194;50.046;21.954;2022-09-03T10:19:41;99329.27;;;19.22;55.42
36138;BME280;22194;50.046;21.954;2022-09-03T10:22:16;99326.35;;;19.28;55.19
36138;BME280;22194;50.046;21.954;2022-09-03T10:24:58;99324.88;;;19.30;55.24
36138;BME280;22194;50.046;21.954;2022-09-03T10:27:28;99330.42;;;19.32;55.24
36138;BME280;22194;50.046;21.954;2022-09-03T10:30:00;99331.89;;;19.37;55.26
36138;BME280;22194;50.046;21.954;2022-09-03T10:33:00;99327.11;;;19.43;55.20
36138;BME280;22194;50.046;21.954;2022-09-03T10:35:42;99331.95;;;19.50;55.14
36138;BME280;22194;50.046;21.954;2022-09-03T10:38:33;99334.86;;;19.56;55.10
36138;BME280;22194;50.046;21.954;2022-09-03T10:41:24;99335.48;;;19.62;54.96
36138;BME280;22194;50.046;21.954;2022-09-03T10:44:24;99335.45;;;19.64;54.72
36138;BME280;22194;50.046;21.954;2022-09-03T10:47:02;99330.46;;;19.67;54.77
36138;BME280;22194;50.046;21.954;2022-09-03T10:55:55;99316.91;;;19.83;54.47
36138;BME280;22194;50.046;21.954;2022-09-03T11:01:09;99325.13;;;19.91;54.27
36138;BME280;22194;50.046;21.954;2022-09-03T11:03:58;99323.14;;;19.91;54.18
36138;BME280;22194;50.046;21.954;2022-09-03T11:07:00;99323.31;;;19.92;54.26
36138;BME280;22194;50.046;21.954;2022-09-03T11:09:41;99323.45;;;19.93;54.21
36138;BME280;22194;50.046;21.954;2022-09-03T11:12:35;99325.64;;;19.96;54.02
36138;BME280;22194;50.046;21.954;2022-09-03T11:15:30;99330.23;;;19.97;54.01
36138;BME280;22194;50.046;21.954;2022-09-03T11:18:23;99326.42;;;20.02;53.90
36138;BME280;22194;50.046;21.954;2022-09-03T11:20:59;99328.28;;;20.03;53.93
36138;BME280;22194;50.046;21.954;2022-09-03T11:23:41;99326.51;;;20.08;53.80
36138;BME280;22194;50.046;21.954;2022-09-03T11:26:17;99329.28;;;20.13;53.69
36138;BME280;22194;50.046;21.954;2022-09-03T11:29:19;99330.50;;;20.18;53.72
36138;BME280;22194;50.046;21.954;2022-09-03T11:32:17;99328.23;;;20.20;53.67
36138;BME280;22194;50.046;21.954;2022-09-03T11:34:54;99328.77;;;20.24;53.47
36138;BME280;22194;50.046;21.954;2022-09-03T11:37:23;99331.81;;;20.26;53.48
36138;BME280;22194;50.046;21.954;2022-09-03T11:40:12;99331.02;;;20.27;53.44
36138;BME280;22194;50.046;21.954;2022-09-03T11:42:46;99331.65;;;20.27;53.35
36138;BME280;22194;50.046;21.954;2022-09-03T11:48:00;99328.20;;;20.31;53.19
36138;BME280;22194;50.046;21.954;2022-09-03T11:50:32;99328.31;;;20.31;53.13
36138;BME280;22194;50.046;21.954;2022-09-03T11:53:09;99324.80;;;20.29;53.01
36138;BME280;22194;50.046;21.954;2022-09-03T11:58:34;99319.66;;;20.21;52.75
36138;BME280;22194;50.046;21.954;2022-09-03T12:01:13;99319.23;;;20.22;52.74
36138;BME280;22194;50.046;21.954;2022-09-03T12:09:07;99319.95;;;20.37;52.68
36138;BME280;22194;50.046;21.954;2022-09-03T12:17:25;99309.19;;;20.57;52.40
36138;BME280;22194;50.046;21.954;2022-09-03T12:20:00;99306.57;;;20.62;52.42
36138;BME280;22194;50.046;21.954;2022-09-03T12:22:38;99307.88;;;20.68;52.23
36138;BME280;22194;50.046;21.954;2022-09-03T12:25:14;99304.13;;;20.75;52.25
36138;BME280;22194;50.046;21.954;2022-09-03T12:27:46;99299.88;;;20.79;52.13
36138;BME280;22194;50.046;21.954;2022-09-03T12:30:21;99296.13;;;20.80;52.06
36138;BME280;22194;50.046;21.954;2022-09-03T12:32:50;99294.42;;;20.81;52.03
36138;BME280;22194;50.046;21.954;2022-09-03T12:35:23;99292.52;;;20.83;51.99
36138;BME280;22194;50.046;21.954;2022-09-03T12:38:14;99286.20;;;20.87;51.89
36138;BME280;22194;50.046;21.954;2022-09-03T12:40:53;99288.75;;;20.83;51.75
36138;BME280;22194;50.046;21.954;2022-09-03T12:43:54;99289.33;;;20.85;51.84
36138;BME280;22194;50.046;21.954;2022-09-03T12:46:31;99286.27;;;20.86;51.69
36138;BME280;22194;50.046;21.954;2022-09-03T12:49:04;99288.91;;;20.85;51.58
36138;BME280;22194;50.046;21.954;2022-09-03T12:52:04;99284.23;;;20.84;51.62
36138;BME280;22194;50.046;21.954;2022-09-03T12:55:02;99278.12;;;20.78;51.57
36138;BME280;22194;50.046;21.954;2022-09-03T12:57:37;99274.19;;;20.75;51.26
36138;BME280;22194;50.046;21.954;2022-09-03T13:00:12;99269.46;;;20.75;51.19
36138;BME280;22194;50.046;21.954;2022-09-03T13:05:25;99273.27;;;20.68;51.22
36138;BME280;22194;50.046;21.954;2022-09-03T13:08:04;99268.86;;;20.63;51.09
36138;BME280;22194;50.046;21.954;2022-09-03T13:10:34;99266.36;;;20.54;51.08
36138;BME280;22194;50.046;21.954;2022-09-03T13:13:18;99269.21;;;20.42;50.92
36138;BME280;22194;50.046;21.954;2022-09-03T13:19:04;99271.29;;;20.32;50.76
36138;BME280;22194;50.046;21.954;2022-09-03T13:27:21;99265.91;;;20.22;50.58
36138;BME280;22194;50.046;21.954;2022-09-03T13:30:15;99266.63;;;20.14;50.62
36138;BME280;22194;50.046;21.954;2022-09-03T13:33:17;99262.45;;;20.10;50.60
36138;BME280;22194;50.046;21.954;2022-09-03T13:39:00;99256.55;;;20.14;50.55
36138;BME280;22194;50.046;21.954;2022-09-03T13:44:13;99260.61;;;20.20;50.47
36138;BME280;22194;50.046;21.954;2022-09-03T13:46:59;99258.33;;;20.22;50.36
36138;BME280;22194;50.046;21.954;2022-09-03T13:49:43;99264.66;;;20.22;50.33
36138;BME280;22194;50.046;21.954;2022-09-03T13:52:45;99271.70;;;20.21;50.18
36138;BME280;22194;50.046;21.954;2022-09-03T13:58:03;99275.03;;;20.08;50.17
36138;BME280;22194;50.046;21.954;2022-09-03T14:00:46;99279.22;;;20.06;50.14
36138;BME280;22194;50.046;21.954;2022-09-03T14:03:54;99279.70;;;20.05;50.15
36138;BME280;22194;50.046;21.954;2022-09-03T14:06:48;99285.48;;;20.00;49.94
36138;BME280;22194;50.046;21.954;2022-09-03T14:15:15;99291.90;;;19.78;49.85
36138;BME280;22194;50.046;21.954;2022-09-03T14:18:14;99289.98;;;19.72;49.92
36138;BME280;22194;50.046;21.954;2022-09-03T14:20:56;99286.50;;;19.70;49.76
36138;BME280;22194;50.046;21.954;2022-09-03T14:26:34;99291.55;;;19.66;49.79
36138;BME280;22194;50.046;21.954;2022-09-03T14:29:18;99284.40;;;19.67;49.77
36138;BME280;22194;50.046;21.954;2022-09-03T14:40:59;99285.95;;;19.61;49.48
36138;BME280;22194;50.046;21.954;2022-09-03T14:52:47;99285.60;;;19.61;49.63
36138;BME280;22194;50.046;21.954;2022-09-03T14:58:32;99296.45;;;19.56;49.51
36138;BME280;22194;50.046;21.954;2022-09-03T15:01:17;99298.89;;;19.48;49.48
36138;BME280;22194;50.046;21.954;2022-09-03T15:09:50;99299.98;;;19.36;49.41
36138;BME280;22194;50.046;21.954;2022-09-03T15:12:36;99295.05;;;19.31;49.43
36138;BME280;22194;50.046;21.954;2022-09-03T15:18:44;99299.77;;;19.23;49.34
36138;BME280;22194;50.046;21.954;2022-09-03T15:30:12;99305.84;;;18.84;49.31
36138;BME280;22194;50.046;21.954;2022-09-03T15:35:37;99309.63;;;18.73;49.39
36138;BME280;22194;50.046;21.954;2022-09-03T15:44:16;99313.40;;;18.54;49.41
36138;BME280;22194;50.046;21.954;2022-09-03T15:46:58;99311.63;;;18.52;49.54
36138;BME280;22194;50.046;21.954;2022-09-03T15:55:10;99308.65;;;18.44;49.51
36138;BME280;22194;50.046;21.954;2022-09-03T16:00:19;99308.77;;;18.38;49.51
36138;BME280;22194;50.046;21.954;2022-09-03T16:05:45;99313.88;;;18.33;49.55
36138;BME280;22194;50.046;21.954;2022-09-03T16:08:42;99314.79;;;18.32;49.78
36138;BME280;22194;50.046;21.954;2022-09-03T16:14:25;99307.13;;;18.29;49.76
36138;BME280;22194;50.046;21.954;2022-09-03T16:17:07;99308.70;;;18.29;49.81
36138;BME280;22194;50.046;21.954;2022-09-03T16:19:45;99309.95;;;18.29;49.86
36138;BME280;22194;50.046;21.954;2022-09-03T16:22:30;99312.95;;;18.30;49.96
36138;BME280;22194;50.046;21.954;2022-09-03T16:25:11;99311.56;;;18.29;49.87
36138;BME280;22194;50.046;21.954;2022-09-03T16:27:57;99309.54;;;18.28;50.07
36138;BME280;22194;50.046;21.954;2022-09-03T16:30:49;99312.41;;;18.26;50.07
36138;BME280;22194;50.046;21.954;2022-09-03T16:33:54;99314.73;;;18.21;49.91
36138;BME280;22194;50.046;21.954;2022-09-03T16:42:48;99306.95;;;18.06;50.11
36138;BME280;22194;50.046;21.954;2022-09-03T16:51:30;99311.59;;;18.01;50.42
36138;BME280;22194;50.046;21.954;2022-09-03T16:54:16;99312.48;;;17.98;50.26
36138;BME280;22194;50.046;21.954;2022-09-03T17:06:30;99321.41;;;17.86;50.28
36138;BME280;22194;50.046;21.954;2022-09-03T17:08:57;99321.34;;;17.81;50.54
36138;BME280;22194;50.046;21.954;2022-09-03T17:32:24;99354.39;;;17.64;50.96
36138;BME280;22194;50.046;21.954;2022-09-03T17:38:23;99351.89;;;17.53;51.04
36138;BME280;22194;50.046;21.954;2022-09-03T17:46:43;99357.05;;;17.37;51.11